Lewiston, Nebraska
Current Conditions -  °F | °C
As of 7:55 AM on Wednesday 26 Nov 2014 (Local Time) from KBIE Reporting Station
Overcast Overcast  
Wind Chill: 26°   Ceiling: 3900
Heat Index: 37°   Visibility: 10mi
Dew Point: 29°   Wind: 21mph
Humidity: 75%   Direction: 310°NW
Pressure: 29.99"   Gusts: 24mph
Location:  40.24°N, 96.4°W
Report Text: KBIE 261355Z AUTO 31018G21KT 10SM BKN039 OVC045 03/M01 A2999 RMK AO2 T00251015
Loading
Personal Weather Stations






























Interactive Weather Map New forecast layout! Learn more

10-Day Weather Forecast

Advertisements
Track Severe Weather on mobile